sensor_id;sensor_type;location;lat;lon;timestamp;P1;durP1;ratioP1;P2;durP2;ratioP2
15159;SDS011;7680;48.800;9.680;2023-02-11T00:02:01;38.77;;;25.03;;
15159;SDS011;7680;48.800;9.680;2023-02-11T00:04:35;37.43;;;25.47;;
15159;SDS011;7680;48.800;9.680;2023-02-11T00:07:08;35.07;;;25.27;;
15159;SDS011;7680;48.800;9.680;2023-02-11T00:09:41;36.80;;;24.70;;
15159;SDS011;7680;48.800;9.680;2023-02-11T00:12:15;37.87;;;25.73;;
15159;SDS011;7680;48.800;9.680;2023-02-11T00:14:51;37.73;;;26.63;;
15159;SDS011;7680;48.800;9.680;2023-02-11T00:17:24;34.93;;;23.80;;
15159;SDS011;7680;48.800;9.680;2023-02-11T00:19:57;35.70;;;24.27;;
15159;SDS011;7680;48.800;9.680;2023-02-11T00:22:30;38.60;;;25.60;;
15159;SDS011;7680;48.800;9.680;2023-02-11T00:25:04;35.03;;;23.70;;
15159;SDS011;7680;48.800;9.680;2023-02-11T00:27:38;35.20;;;25.13;;
15159;SDS011;7680;48.800;9.680;2023-02-11T00:30:12;34.80;;;23.93;;
15159;SDS011;7680;48.800;9.680;2023-02-11T00:32:46;34.57;;;24.20;;
15159;SDS011;7680;48.800;9.680;2023-02-11T00:35:19;34.73;;;23.40;;
15159;SDS011;7680;48.800;9.680;2023-02-11T00:37:53;33.40;;;24.80;;
15159;SDS011;7680;48.800;9.680;2023-02-11T00:40:27;32.37;;;24.87;;
15159;SDS011;7680;48.800;9.680;2023-02-11T00:43:00;31.77;;;22.73;;
15159;SDS011;7680;48.800;9.680;2023-02-11T00:45:35;34.33;;;23.27;;
15159;SDS011;7680;48.800;9.680;2023-02-11T00:48:08;36.93;;;25.17;;
15159;SDS011;7680;48.800;9.680;2023-02-11T00:50:41;35.20;;;25.13;;
15159;SDS011;7680;48.800;9.680;2023-02-11T00:53:14;32.37;;;22.83;;
15159;SDS011;7680;48.800;9.680;2023-02-11T00:55:48;29.70;;;22.67;;
15159;SDS011;7680;48.800;9.680;2023-02-11T00:58:21;32.80;;;23.57;;
15159;SDS011;7680;48.800;9.680;2023-02-11T01:00:56;29.50;;;21.77;;
15159;SDS011;7680;48.800;9.680;2023-02-11T01:03:29;30.90;;;22.93;;
15159;SDS011;7680;48.800;9.680;2023-02-11T01:06:03;34.13;;;24.33;;
15159;SDS011;7680;48.800;9.680;2023-02-11T01:08:37;32.00;;;22.93;;
15159;SDS011;7680;48.800;9.680;2023-02-11T01:11:11;33.30;;;24.67;;
15159;SDS011;7680;48.800;9.680;2023-02-11T01:13:47;30.23;;;22.27;;
15159;SDS011;7680;48.800;9.680;2023-02-11T01:16:22;32.83;;;22.43;;
15159;SDS011;7680;48.800;9.680;2023-02-11T01:18:55;30.77;;;22.93;;
15159;SDS011;7680;48.800;9.680;2023-02-11T01:21:29;32.37;;;23.07;;
15159;SDS011;7680;48.800;9.680;2023-02-11T01:24:02;35.27;;;23.47;;
15159;SDS011;7680;48.800;9.680;2023-02-11T01:26:35;33.83;;;24.87;;
15159;SDS011;7680;48.800;9.680;2023-02-11T01:29:09;33.90;;;24.87;;
15159;SDS011;7680;48.800;9.680;2023-02-11T01:31:43;34.77;;;24.77;;
15159;SDS011;7680;48.800;9.680;2023-02-11T01:34:16;31.40;;;23.57;;
15159;SDS011;7680;48.800;9.680;2023-02-11T01:36:49;31.77;;;24.33;;
15159;SDS011;7680;48.800;9.680;2023-02-11T01:39:22;34.20;;;24.37;;
15159;SDS011;7680;48.800;9.680;2023-02-11T01:41:56;31.60;;;23.10;;
15159;SDS011;7680;48.800;9.680;2023-02-11T01:44:30;35.93;;;26.27;;
15159;SDS011;7680;48.800;9.680;2023-02-11T01:47:07;32.87;;;23.77;;
15159;SDS011;7680;48.800;9.680;2023-02-11T01:49:41;32.23;;;23.73;;
15159;SDS011;7680;48.800;9.680;2023-02-11T01:52:20;30.57;;;22.90;;
15159;SDS011;7680;48.800;9.680;2023-02-11T01:54:58;32.27;;;23.57;;
15159;SDS011;7680;48.800;9.680;2023-02-11T01:57:53;30.73;;;22.80;;
15159;SDS011;7680;48.800;9.680;2023-02-11T02:00:31;31.07;;;23.03;;
15159;SDS011;7680;48.800;9.680;2023-02-11T02:03:10;30.17;;;22.07;;
15159;SDS011;7680;48.800;9.680;2023-02-11T02:05:47;31.90;;;23.07;;
15159;SDS011;7680;48.800;9.680;2023-02-11T02:08:27;32.47;;;23.20;;
15159;SDS011;7680;48.800;9.680;2023-02-11T02:11:07;31.07;;;23.70;;
15159;SDS011;7680;48.800;9.680;2023-02-11T02:13:41;29.73;;;22.37;;
15159;SDS011;7680;48.800;9.680;2023-02-11T02:16:15;31.13;;;23.23;;
15159;SDS011;7680;48.800;9.680;2023-02-11T02:18:53;33.73;;;23.40;;
15159;SDS011;7680;48.800;9.680;2023-02-11T02:21:58;35.30;;;24.83;;
15159;SDS011;7680;48.800;9.680;2023-02-11T02:25:10;30.83;;;23.70;;
15159;SDS011;7680;48.800;9.680;2023-02-11T02:28:35;35.17;;;24.63;;
15159;SDS011;7680;48.800;9.680;2023-02-11T02:31:41;35.57;;;24.97;;
15159;SDS011;7680;48.800;9.680;2023-02-11T02:34:33;33.20;;;23.33;;
15159;SDS011;7680;48.800;9.680;2023-02-11T02:37:14;34.77;;;24.00;;
15159;SDS011;7680;48.800;9.680;2023-02-11T02:39:53;36.57;;;25.37;;
15159;SDS011;7680;48.800;9.680;2023-02-11T02:42:29;36.23;;;24.27;;
15159;SDS011;7680;48.800;9.680;2023-02-11T02:45:03;31.23;;;23.50;;
15159;SDS011;7680;48.800;9.680;2023-02-11T02:47:38;35.00;;;24.10;;
15159;SDS011;7680;48.800;9.680;2023-02-11T02:50:14;35.07;;;24.73;;
15159;SDS011;7680;48.800;9.680;2023-02-11T02:53:06;34.40;;;24.37;;
15159;SDS011;7680;48.800;9.680;2023-02-11T02:55:53;35.87;;;25.57;;
15159;SDS011;7680;48.800;9.680;2023-02-11T03:01:30;37.33;;;26.03;;
15159;SDS011;7680;48.800;9.680;2023-02-11T03:04:12;35.00;;;25.50;;
15159;SDS011;7680;48.800;9.680;2023-02-11T03:06:55;35.40;;;25.20;;
15159;SDS011;7680;48.800;9.680;2023-02-11T03:09:36;35.70;;;25.60;;
15159;SDS011;7680;48.800;9.680;2023-02-11T03:12:14;36.13;;;26.47;;
15159;SDS011;7680;48.800;9.680;2023-02-11T03:14:49;37.03;;;24.77;;
15159;SDS011;7680;48.800;9.680;2023-02-11T03:17:23;37.40;;;26.77;;
15159;SDS011;7680;48.800;9.680;2023-02-11T03:20:00;39.07;;;27.00;;
15159;SDS011;7680;48.800;9.680;2023-02-11T03:22:38;34.23;;;25.97;;
15159;SDS011;7680;48.800;9.680;2023-02-11T03:25:14;37.40;;;25.17;;
15159;SDS011;7680;48.800;9.680;2023-02-11T03:27:49;37.23;;;25.53;;
15159;SDS011;7680;48.800;9.680;2023-02-11T03:30:29;35.23;;;24.67;;
15159;SDS011;7680;48.800;9.680;2023-02-11T03:33:11;39.40;;;28.73;;
15159;SDS011;7680;48.800;9.680;2023-02-11T03:35:52;33.83;;;25.80;;
15159;SDS011;7680;48.800;9.680;2023-02-11T03:38:31;33.53;;;26.23;;
15159;SDS011;7680;48.800;9.680;2023-02-11T03:41:07;34.17;;;24.57;;
15159;SDS011;7680;48.800;9.680;2023-02-11T03:43:43;33.23;;;24.30;;
15159;SDS011;7680;48.800;9.680;2023-02-11T03:46:22;36.93;;;24.47;;
15159;SDS011;7680;48.800;9.680;2023-02-11T03:49:01;35.87;;;26.23;;
15159;SDS011;7680;48.800;9.680;2023-02-11T03:51:38;33.87;;;24.83;;
15159;SDS011;7680;48.800;9.680;2023-02-11T03:54:14;35.80;;;26.27;;
15159;SDS011;7680;48.800;9.680;2023-02-11T03:56:53;37.03;;;25.83;;
15159;SDS011;7680;48.800;9.680;2023-02-11T03:59:28;33.50;;;25.47;;
15159;SDS011;7680;48.800;9.680;2023-02-11T04:02:02;34.87;;;25.83;;
15159;SDS011;7680;48.800;9.680;2023-02-11T04:04:35;34.60;;;25.13;;
15159;SDS011;7680;48.800;9.680;2023-02-11T04:07:08;32.60;;;25.57;;
15159;SDS011;7680;48.800;9.680;2023-02-11T04:09:44;35.50;;;26.27;;
15159;SDS011;7680;48.800;9.680;2023-02-11T04:12:17;36.47;;;25.90;;
15159;SDS011;7680;48.800;9.680;2023-02-11T04:14:51;35.70;;;26.33;;
15159;SDS011;7680;48.800;9.680;2023-02-11T04:17:24;37.87;;;26.80;;
15159;SDS011;7680;48.800;9.680;2023-02-11T04:19:57;35.50;;;26.50;;
15159;SDS011;7680;48.800;9.680;2023-02-11T04:22:30;34.70;;;26.13;;
15159;SDS011;7680;48.800;9.680;2023-02-11T04:25:05;34.30;;;26.13;;
15159;SDS011;7680;48.800;9.680;2023-02-11T04:27:40;38.07;;;26.17;;
15159;SDS011;7680;48.800;9.680;2023-02-11T04:30:13;34.70;;;27.13;;
15159;SDS011;7680;48.800;9.680;2023-02-11T04:32:47;34.63;;;26.40;;
15159;SDS011;7680;48.800;9.680;2023-02-11T04:35:20;33.67;;;25.47;;
15159;SDS011;7680;48.800;9.680;2023-02-11T04:37:53;34.17;;;26.30;;
15159;SDS011;7680;48.800;9.680;2023-02-11T04:40:28;36.67;;;26.23;;
15159;SDS011;7680;48.800;9.680;2023-02-11T04:43:01;37.80;;;28.20;;
15159;SDS011;7680;48.800;9.680;2023-02-11T04:45:34;36.57;;;26.77;;
15159;SDS011;7680;48.800;9.680;2023-02-11T04:48:08;38.97;;;28.80;;
15159;SDS011;7680;48.800;9.680;2023-02-11T04:50:41;40.30;;;28.70;;
15159;SDS011;7680;48.800;9.680;2023-02-11T04:53:14;40.10;;;28.37;;
15159;SDS011;7680;48.800;9.680;2023-02-11T04:55:49;37.50;;;27.43;;
15159;SDS011;7680;48.800;9.680;2023-02-11T04:58:23;35.70;;;27.67;;
15159;SDS011;7680;48.800;9.680;2023-02-11T05:01:03;35.63;;;27.37;;
15159;SDS011;7680;48.800;9.680;2023-02-11T05:03:38;38.77;;;29.80;;
15159;SDS011;7680;48.800;9.680;2023-02-11T05:06:12;36.00;;;28.33;;
15159;SDS011;7680;48.800;9.680;2023-02-11T05:08:45;38.30;;;29.07;;
15159;SDS011;7680;48.800;9.680;2023-02-11T05:11:21;48.87;;;34.67;;
15159;SDS011;7680;48.800;9.680;2023-02-11T05:13:56;41.83;;;31.70;;
15159;SDS011;7680;48.800;9.680;2023-02-11T05:16:29;44.60;;;31.43;;
15159;SDS011;7680;48.800;9.680;2023-02-11T05:19:02;38.73;;;29.13;;
15159;SDS011;7680;48.800;9.680;2023-02-11T05:21:35;39.77;;;29.63;;
15159;SDS011;7680;48.800;9.680;2023-02-11T05:24:12;41.83;;;30.30;;
15159;SDS011;7680;48.800;9.680;2023-02-11T05:26:47;38.67;;;29.33;;
15159;SDS011;7680;48.800;9.680;2023-02-11T05:29:20;40.17;;;29.40;;
15159;SDS011;7680;48.800;9.680;2023-02-11T05:31:53;36.07;;;30.07;;
15159;SDS011;7680;48.800;9.680;2023-02-11T05:34:26;41.20;;;30.50;;
15159;SDS011;7680;48.800;9.680;2023-02-11T05:37:00;38.43;;;29.27;;
15159;SDS011;7680;48.800;9.680;2023-02-11T05:39:33;38.00;;;27.77;;
15159;SDS011;7680;48.800;9.680;2023-02-11T05:42:08;39.87;;;30.70;;
15159;SDS011;7680;48.800;9.680;2023-02-11T05:44:41;35.60;;;27.90;;
15159;SDS011;7680;48.800;9.680;2023-02-11T05:47:14;37.37;;;30.07;;
15159;SDS011;7680;48.800;9.680;2023-02-11T05:49:47;37.30;;;30.10;;
15159;SDS011;7680;48.800;9.680;2023-02-11T05:52:21;34.53;;;28.20;;
15159;SDS011;7680;48.800;9.680;2023-02-11T05:54:55;35.07;;;28.97;;
15159;SDS011;7680;48.800;9.680;2023-02-11T05:57:29;35.80;;;29.03;;
15159;SDS011;7680;48.800;9.680;2023-02-11T06:00:03;34.97;;;27.87;;
15159;SDS011;7680;48.800;9.680;2023-02-11T06:02:38;32.23;;;26.23;;
15159;SDS011;7680;48.800;9.680;2023-02-11T06:05:12;34.23;;;30.00;;
15159;SDS011;7680;48.800;9.680;2023-02-11T06:07:45;37.33;;;28.10;;
15159;SDS011;7680;48.800;9.680;2023-02-11T06:10:19;35.73;;;27.57;;
15159;SDS011;7680;48.800;9.680;2023-02-11T06:12:53;35.80;;;27.90;;
15159;SDS011;7680;48.800;9.680;2023-02-11T06:15:26;35.53;;;27.90;;
15159;SDS011;7680;48.800;9.680;2023-02-11T06:18:00;37.60;;;28.80;;
15159;SDS011;7680;48.800;9.680;2023-02-11T06:20:33;39.63;;;30.20;;
15159;SDS011;7680;48.800;9.680;2023-02-11T06:23:06;38.93;;;29.80;;
15159;SDS011;7680;48.800;9.680;2023-02-11T06:25:39;39.20;;;28.83;;
15159;SDS011;7680;48.800;9.680;2023-02-11T06:28:14;38.23;;;28.43;;
15159;SDS011;7680;48.800;9.680;2023-02-11T06:30:47;39.20;;;30.27;;
15159;SDS011;7680;48.800;9.680;2023-02-11T06:33:21;39.10;;;29.20;;
15159;SDS011;7680;48.800;9.680;2023-02-11T06:35:54;42.00;;;30.63;;
15159;SDS011;7680;48.800;9.680;2023-02-11T06:38:27;39.83;;;31.00;;
15159;SDS011;7680;48.800;9.680;2023-02-11T06:41:00;41.97;;;31.90;;
15159;SDS011;7680;48.800;9.680;2023-02-11T06:43:35;42.30;;;32.33;;
15159;SDS011;7680;48.800;9.680;2023-02-11T06:46:08;41.07;;;32.03;;
15159;SDS011;7680;48.800;9.680;2023-02-11T06:48:42;42.73;;;32.10;;
15159;SDS011;7680;48.800;9.680;2023-02-11T06:51:15;36.87;;;30.80;;
15159;SDS011;7680;48.800;9.680;2023-02-11T06:53:49;40.47;;;30.60;;
15159;SDS011;7680;48.800;9.680;2023-02-11T06:56:22;41.40;;;33.03;;
15159;SDS011;7680;48.800;9.680;2023-02-11T06:58:59;39.97;;;30.73;;
15159;SDS011;7680;48.800;9.680;2023-02-11T07:01:32;44.17;;;32.73;;
15159;SDS011;7680;48.800;9.680;2023-02-11T07:04:06;41.97;;;33.60;;
15159;SDS011;7680;48.800;9.680;2023-02-11T07:06:39;43.47;;;31.50;;
15159;SDS011;7680;48.800;9.680;2023-02-11T07:09:13;40.57;;;30.87;;
15159;SDS011;7680;48.800;9.680;2023-02-11T07:11:46;41.10;;;32.77;;
15159;SDS011;7680;48.800;9.680;2023-02-11T07:14:20;40.57;;;32.83;;
15159;SDS011;7680;48.800;9.680;2023-02-11T07:16:53;37.97;;;30.47;;
15159;SDS011;7680;48.800;9.680;2023-02-11T07:19:27;42.83;;;31.90;;
15159;SDS011;7680;48.800;9.680;2023-02-11T07:22:00;37.73;;;30.67;;
15159;SDS011;7680;48.800;9.680;2023-02-11T07:24:33;39.87;;;31.27;;
15159;SDS011;7680;48.800;9.680;2023-02-11T07:27:06;36.80;;;29.83;;
15159;SDS011;7680;48.800;9.680;2023-02-11T07:29:41;39.30;;;30.63;;
15159;SDS011;7680;48.800;9.680;2023-02-11T07:32:16;40.80;;;32.53;;
15159;SDS011;7680;48.800;9.680;2023-02-11T07:34:49;35.37;;;29.03;;
15159;SDS011;7680;48.800;9.680;2023-02-11T07:37:22;43.47;;;31.70;;
15159;SDS011;7680;48.800;9.680;2023-02-11T07:39:55;38.43;;;31.03;;
15159;SDS011;7680;48.800;9.680;2023-02-11T07:42:29;37.80;;;31.60;;
15159;SDS011;7680;48.800;9.680;2023-02-11T07:45:04;37.87;;;31.40;;
15159;SDS011;7680;48.800;9.680;2023-02-11T07:47:38;38.37;;;31.87;;
15159;SDS011;7680;48.800;9.680;2023-02-11T07:50:12;36.70;;;31.30;;
15159;SDS011;7680;48.800;9.680;2023-02-11T07:52:47;38.30;;;31.73;;
15159;SDS011;7680;48.800;9.680;2023-02-11T07:55:20;39.33;;;32.00;;
15159;SDS011;7680;48.800;9.680;2023-02-11T07:57:53;41.37;;;33.23;;
15159;SDS011;7680;48.800;9.680;2023-02-11T08:00:28;38.93;;;31.83;;
15159;SDS011;7680;48.800;9.680;2023-02-11T08:03:01;40.47;;;33.23;;
15159;SDS011;7680;48.800;9.680;2023-02-11T08:05:36;38.77;;;32.43;;
15159;SDS011;7680;48.800;9.680;2023-02-11T08:08:10;40.70;;;32.10;;
15159;SDS011;7680;48.800;9.680;2023-02-11T08:10:43;40.03;;;32.73;;
15159;SDS011;7680;48.800;9.680;2023-02-11T08:13:16;36.70;;;31.33;;
15159;SDS011;7680;48.800;9.680;2023-02-11T08:15:51;44.87;;;33.37;;
15159;SDS011;7680;48.800;9.680;2023-02-11T08:18:24;38.07;;;31.80;;
15159;SDS011;7680;48.800;9.680;2023-02-11T08:21:02;38.97;;;32.93;;
15159;SDS011;7680;48.800;9.680;2023-02-11T08:23:37;42.57;;;32.87;;
15159;SDS011;7680;48.800;9.680;2023-02-11T08:26:12;41.37;;;32.50;;
15159;SDS011;7680;48.800;9.680;2023-02-11T08:28:49;39.67;;;32.73;;
15159;SDS011;7680;48.800;9.680;2023-02-11T08:31:25;40.40;;;31.20;;
15159;SDS011;7680;48.800;9.680;2023-02-11T08:34:01;39.77;;;31.50;;
15159;SDS011;7680;48.800;9.680;2023-02-11T08:36:35;38.63;;;32.37;;
15159;SDS011;7680;48.800;9.680;2023-02-11T08:39:11;42.10;;;33.83;;
15159;SDS011;7680;48.800;9.680;2023-02-11T08:41:51;39.13;;;31.80;;
15159;SDS011;7680;48.800;9.680;2023-02-11T08:44:26;36.90;;;31.63;;
15159;SDS011;7680;48.800;9.680;2023-02-11T08:47:02;41.13;;;33.43;;
15159;SDS011;7680;48.800;9.680;2023-02-11T08:49:35;39.30;;;32.80;;
15159;SDS011;7680;48.800;9.680;2023-02-11T08:52:09;42.93;;;34.07;;
15159;SDS011;7680;48.800;9.680;2023-02-11T08:54:42;42.40;;;34.73;;
15159;SDS011;7680;48.800;9.680;2023-02-11T08:57:15;41.30;;;34.93;;
15159;SDS011;7680;48.800;9.680;2023-02-11T08:59:48;43.13;;;36.10;;
15159;SDS011;7680;48.800;9.680;2023-02-11T09:02:23;45.60;;;36.97;;
15159;SDS011;7680;48.800;9.680;2023-02-11T09:04:57;37.90;;;33.23;;
15159;SDS011;7680;48.800;9.680;2023-02-11T09:07:30;41.50;;;33.13;;
15159;SDS011;7680;48.800;9.680;2023-02-11T09:10:03;39.67;;;31.57;;
15159;SDS011;7680;48.800;9.680;2023-02-11T09:12:37;38.37;;;31.77;;
15159;SDS011;7680;48.800;9.680;2023-02-11T09:15:10;41.27;;;32.53;;
15159;SDS011;7680;48.800;9.680;2023-02-11T09:17:44;38.23;;;30.63;;
15159;SDS011;7680;48.800;9.680;2023-02-11T09:20:18;40.00;;;32.50;;
15159;SDS011;7680;48.800;9.680;2023-02-11T09:22:52;41.03;;;32.37;;
15159;SDS011;7680;48.800;9.680;2023-02-11T09:25:28;41.73;;;34.27;;
15159;SDS011;7680;48.800;9.680;2023-02-11T09:28:01;39.93;;;33.30;;
15159;SDS011;7680;48.800;9.680;2023-02-11T09:30:34;37.30;;;30.63;;
15159;SDS011;7680;48.800;9.680;2023-02-11T09:33:10;37.90;;;31.53;;
15159;SDS011;7680;48.800;9.680;2023-02-11T09:35:43;39.37;;;31.77;;
15159;SDS011;7680;48.800;9.680;2023-02-11T09:38:17;40.50;;;33.43;;
15159;SDS011;7680;48.800;9.680;2023-02-11T09:40:50;37.97;;;31.13;;
15159;SDS011;7680;48.800;9.680;2023-02-11T09:43:24;39.47;;;32.13;;
15159;SDS011;7680;48.800;9.680;2023-02-11T09:46:04;36.93;;;30.57;;
15159;SDS011;7680;48.800;9.680;2023-02-11T09:48:40;37.67;;;29.67;;
15159;SDS011;7680;48.800;9.680;2023-02-11T09:51:18;33.40;;;28.27;;
15159;SDS011;7680;48.800;9.680;2023-02-11T09:53:59;32.53;;;27.23;;
15159;SDS011;7680;48.800;9.680;2023-02-11T09:56:38;30.80;;;25.40;;
15159;SDS011;7680;48.800;9.680;2023-02-11T09:59:12;31.00;;;25.70;;
15159;SDS011;7680;48.800;9.680;2023-02-11T10:01:47;30.43;;;24.60;;
15159;SDS011;7680;48.800;9.680;2023-02-11T10:04:31;31.17;;;25.00;;
15159;SDS011;7680;48.800;9.680;2023-02-11T10:07:30;28.47;;;23.60;;
15159;SDS011;7680;48.800;9.680;2023-02-11T10:10:12;30.57;;;25.93;;
15159;SDS011;7680;48.800;9.680;2023-02-11T10:13:03;32.80;;;25.10;;
15159;SDS011;7680;48.800;9.680;2023-02-11T10:16:08;30.20;;;26.27;;
15159;SDS011;7680;48.800;9.680;2023-02-11T10:19:05;31.80;;;25.97;;
15159;SDS011;7680;48.800;9.680;2023-02-11T10:21:54;32.67;;;26.27;;
15159;SDS011;7680;48.800;9.680;2023-02-11T10:24:36;31.67;;;25.33;;
15159;SDS011;7680;48.800;9.680;2023-02-11T10:27:13;28.27;;;24.27;;
15159;SDS011;7680;48.800;9.680;2023-02-11T10:29:52;31.73;;;25.77;;
15159;SDS011;7680;48.800;9.680;2023-02-11T10:32:34;31.27;;;24.77;;
15159;SDS011;7680;48.800;9.680;2023-02-11T10:35:15;27.83;;;24.30;;
15159;SDS011;7680;48.800;9.680;2023-02-11T10:37:54;28.83;;;23.80;;
15159;SDS011;7680;48.800;9.680;2023-02-11T10:40:28;27.60;;;22.93;;
15159;SDS011;7680;48.800;9.680;2023-02-11T10:43:03;28.87;;;24.23;;
15159;SDS011;7680;48.800;9.680;2023-02-11T10:45:42;26.90;;;24.00;;
15159;SDS011;7680;48.800;9.680;2023-02-11T10:48:38;25.97;;;22.43;;
15159;SDS011;7680;48.800;9.680;2023-02-11T10:51:16;25.87;;;22.33;;
15159;SDS011;7680;48.800;9.680;2023-02-11T10:54:10;25.57;;;22.87;;
15159;SDS011;7680;48.800;9.680;2023-02-11T10:56:57;28.00;;;22.97;;
15159;SDS011;7680;48.800;9.680;2023-02-11T10:59:32;26.07;;;22.40;;
15159;SDS011;7680;48.800;9.680;2023-02-11T11:02:18;22.87;;;20.40;;
15159;SDS011;7680;48.800;9.680;2023-02-11T11:04:55;22.17;;;18.50;;
15159;SDS011;7680;48.800;9.680;2023-02-11T11:07:31;23.57;;;19.33;;
15159;SDS011;7680;48.800;9.680;2023-02-11T11:10:10;23.47;;;18.47;;
15159;SDS011;7680;48.800;9.680;2023-02-11T11:12:59;20.57;;;17.03;;
15159;SDS011;7680;48.800;9.680;2023-02-11T11:15:33;17.90;;;15.27;;
15159;SDS011;7680;48.800;9.680;2023-02-11T11:18:11;17.43;;;15.23;;
15159;SDS011;7680;48.800;9.680;2023-02-11T11:20:54;16.07;;;14.33;;
15159;SDS011;7680;48.800;9.680;2023-02-11T11:23:31;15.80;;;13.23;;
15159;SDS011;7680;48.800;9.680;2023-02-11T11:26:10;15.53;;;13.33;;
15159;SDS011;7680;48.800;9.680;2023-02-11T11:28:50;15.93;;;13.50;;
15159;SDS011;7680;48.800;9.680;2023-02-11T11:31:29;13.50;;;12.07;;
15159;SDS011;7680;48.800;9.680;2023-02-11T11:34:13;14.43;;;12.83;;
15159;SDS011;7680;48.800;9.680;2023-02-11T11:36:55;13.77;;;12.33;;
15159;SDS011;7680;48.800;9.680;2023-02-11T11:39:30;38.80;;;22.70;;
15159;SDS011;7680;48.800;9.680;2023-02-11T11:42:21;17.10;;;13.50;;
15159;SDS011;7680;48.800;9.680;2023-02-11T11:44:58;19.93;;;15.33;;
15159;SDS011;7680;48.800;9.680;2023-02-11T11:47:35;16.20;;;13.73;;
15159;SDS011;7680;48.800;9.680;2023-02-11T11:50:16;15.10;;;13.30;;
15159;SDS011;7680;48.800;9.680;2023-02-11T11:52:59;18.00;;;13.87;;
15159;SDS011;7680;48.800;9.680;2023-02-11T11:55:38;13.87;;;12.20;;
15159;SDS011;7680;48.800;9.680;2023-02-11T11:58:17;13.93;;;12.53;;
15159;SDS011;7680;48.800;9.680;2023-02-11T12:00:55;15.20;;;13.37;;
15159;SDS011;7680;48.800;9.680;2023-02-11T12:06:45;15.37;;;13.13;;
15159;SDS011;7680;48.800;9.680;2023-02-11T12:09:33;12.70;;;11.40;;
15159;SDS011;7680;48.800;9.680;2023-02-11T12:12:19;13.77;;;11.97;;
15159;SDS011;7680;48.800;9.680;2023-02-11T12:15:10;13.43;;;12.03;;
15159;SDS011;7680;48.800;9.680;2023-02-11T12:21:13;14.70;;;11.77;;
15159;SDS011;7680;48.800;9.680;2023-02-11T12:24:01;14.00;;;12.00;;
15159;SDS011;7680;48.800;9.680;2023-02-11T12:26:55;14.13;;;11.77;;
15159;SDS011;7680;48.800;9.680;2023-02-11T12:29:36;12.55;;;11.15;;
15159;SDS011;7680;48.800;9.680;2023-02-11T12:32:26;13.70;;;11.15;;
15159;SDS011;7680;48.800;9.680;2023-02-11T12:35:13;12.45;;;11.35;;
15159;SDS011;7680;48.800;9.680;2023-02-11T12:38:09;12.18;;;10.93;;
15159;SDS011;7680;48.800;9.680;2023-02-11T12:41:13;12.70;;;11.48;;
15159;SDS011;7680;48.800;9.680;2023-02-11T12:44:29;13.68;;;11.38;;
15159;SDS011;7680;48.800;9.680;2023-02-11T12:47:16;13.80;;;11.65;;
15159;SDS011;7680;48.800;9.680;2023-02-11T12:50:01;12.57;;;11.30;;
15159;SDS011;7680;48.800;9.680;2023-02-11T12:52:49;12.50;;;11.30;;
15159;SDS011;7680;48.800;9.680;2023-02-11T12:55:58;12.90;;;10.90;;
15159;SDS011;7680;48.800;9.680;2023-02-11T12:58:37;12.45;;;11.20;;
15159;SDS011;7680;48.800;9.680;2023-02-11T13:01:17;13.32;;;11.32;;
15159;SDS011;7680;48.800;9.680;2023-02-11T13:03:54;12.65;;;11.35;;
15159;SDS011;7680;48.800;9.680;2023-02-11T13:06:40;12.50;;;11.27;;
15159;SDS011;7680;48.800;9.680;2023-02-11T13:09:19;13.95;;;12.57;;
15159;SDS011;7680;48.800;9.680;2023-02-11T13:11:57;14.35;;;12.80;;
15159;SDS011;7680;48.800;9.680;2023-02-11T13:14:52;13.77;;;12.38;;
15159;SDS011;7680;48.800;9.680;2023-02-11T13:17:29;13.48;;;12.15;;
15159;SDS011;7680;48.800;9.680;2023-02-11T13:20:13;13.65;;;11.90;;
15159;SDS011;7680;48.800;9.680;2023-02-11T13:23:00;13.10;;;11.80;;
15159;SDS011;7680;48.800;9.680;2023-02-11T13:25:45;12.85;;;11.65;;
15159;SDS011;7680;48.800;9.680;2023-02-11T13:28:27;13.98;;;12.57;;
15159;SDS011;7680;48.800;9.680;2023-02-11T13:31:12;15.18;;;13.30;;
15159;SDS011;7680;48.800;9.680;2023-02-11T13:33:47;15.15;;;13.55;;
15159;SDS011;7680;48.800;9.680;2023-02-11T13:36:21;15.55;;;13.95;;
15159;SDS011;7680;48.800;9.680;2023-02-11T13:38:59;15.88;;;14.23;;
15159;SDS011;7680;48.800;9.680;2023-02-11T13:41:36;15.40;;;13.77;;
15159;SDS011;7680;48.800;9.680;2023-02-11T13:44:17;16.23;;;14.52;;
15159;SDS011;7680;48.800;9.680;2023-02-11T13:46:56;16.13;;;14.50;;
15159;SDS011;7680;48.800;9.680;2023-02-11T13:49:33;15.85;;;14.25;;
15159;SDS011;7680;48.800;9.680;2023-02-11T13:52:15;15.05;;;13.20;;
15159;SDS011;7680;48.800;9.680;2023-02-11T13:54:58;17.65;;;14.82;;
15159;SDS011;7680;48.800;9.680;2023-02-11T13:57:40;20.40;;;15.60;;
15159;SDS011;7680;48.800;9.680;2023-02-11T14:03:21;17.27;;;15.45;;
15159;SDS011;7680;48.800;9.680;2023-02-11T14:06:24;18.00;;;14.88;;
15159;SDS011;7680;48.800;9.680;2023-02-11T14:09:36;17.88;;;15.48;;
15159;SDS011;7680;48.800;9.680;2023-02-11T14:12:31;17.10;;;15.13;;
15159;SDS011;7680;48.800;9.680;2023-02-11T14:15:19;19.95;;;16.40;;
15159;SDS011;7680;48.800;9.680;2023-02-11T14:17:58;18.40;;;15.75;;
15159;SDS011;7680;48.800;9.680;2023-02-11T14:20:36;19.65;;;16.17;;
15159;SDS011;7680;48.800;9.680;2023-02-11T14:23:21;17.35;;;15.43;;
15159;SDS011;7680;48.800;9.680;2023-02-11T14:26:04;18.17;;;15.93;;
15159;SDS011;7680;48.800;9.680;2023-02-11T14:29:01;19.10;;;15.35;;
15159;SDS011;7680;48.800;9.680;2023-02-11T14:31:41;20.67;;;16.33;;
15159;SDS011;7680;48.800;9.680;2023-02-11T14:37:21;17.05;;;15.25;;
15159;SDS011;7680;48.800;9.680;2023-02-11T14:40:12;18.00;;;15.63;;
15159;SDS011;7680;48.800;9.680;2023-02-11T14:42:55;18.77;;;15.75;;
15159;SDS011;7680;48.800;9.680;2023-02-11T14:45:48;16.73;;;14.82;;
15159;SDS011;7680;48.800;9.680;2023-02-11T14:48:26;18.58;;;15.35;;
15159;SDS011;7680;48.800;9.680;2023-02-11T14:51:02;18.88;;;15.55;;
15159;SDS011;7680;48.800;9.680;2023-02-11T14:53:39;20.15;;;16.05;;
15159;SDS011;7680;48.800;9.680;2023-02-11T14:56:18;16.88;;;14.95;;
15159;SDS011;7680;48.800;9.680;2023-02-11T14:58:56;16.92;;;14.25;;
15159;SDS011;7680;48.800;9.680;2023-02-11T15:01:32;16.63;;;14.05;;
15159;SDS011;7680;48.800;9.680;2023-02-11T15:04:21;17.73;;;15.48;;
15159;SDS011;7680;48.800;9.680;2023-02-11T15:06:56;20.55;;;16.10;;
15159;SDS011;7680;48.800;9.680;2023-02-11T15:09:36;17.50;;;15.05;;
15159;SDS011;7680;48.800;9.680;2023-02-11T15:12:15;19.02;;;16.98;;
15159;SDS011;7680;48.800;9.680;2023-02-11T15:14:54;22.02;;;18.17;;
15159;SDS011;7680;48.800;9.680;2023-02-11T15:17:31;20.85;;;17.52;;
15159;SDS011;7680;48.800;9.680;2023-02-11T15:20:05;17.60;;;15.25;;
15159;SDS011;7680;48.800;9.680;2023-02-11T15:22:51;19.40;;;15.40;;
15159;SDS011;7680;48.800;9.680;2023-02-11T15:25:29;18.33;;;15.27;;
15159;SDS011;7680;48.800;9.680;2023-02-11T15:28:09;19.83;;;15.98;;
15159;SDS011;7680;48.800;9.680;2023-02-11T15:30:56;17.23;;;15.18;;
15159;SDS011;7680;48.800;9.680;2023-02-11T15:33:33;16.58;;;14.70;;
15159;SDS011;7680;48.800;9.680;2023-02-11T15:36:08;19.40;;;15.77;;
15159;SDS011;7680;48.800;9.680;2023-02-11T15:38:44;15.98;;;14.32;;
15159;SDS011;7680;48.800;9.680;2023-02-11T15:41:31;17.90;;;15.75;;
15159;SDS011;7680;48.800;9.680;2023-02-11T15:44:24;19.50;;;15.75;;
15159;SDS011;7680;48.800;9.680;2023-02-11T15:46:59;16.13;;;14.38;;
15159;SDS011;7680;48.800;9.680;2023-02-11T15:49:34;15.82;;;14.15;;
15159;SDS011;7680;48.800;9.680;2023-02-11T15:52:07;18.08;;;16.13;;
15159;SDS011;7680;48.800;9.680;2023-02-11T15:54:43;18.75;;;16.50;;